Sao Martinho, Brazil
Current Conditions -  °F | °C
As of 2:00 AM on Friday 19 Dec 2014 (Local Time) from SBLO Reporting Station
Clear Clear  
Wind Chill: 77°   Ceiling: Unl
Heat Index: 79°   Visibility: 6mi
Dew Point: 66°   Wind: 3mph
Humidity: 69%   Direction: 220°SW
Pressure: 29.85"   Gusts: NA
Location:  23.19°S, 51.44°W
Report Text: SBLO 190400Z 22003KT CAVOK 25/19 Q1011
Loading
Personal Weather Stations






























Interactive Weather Map New forecast layout! Learn more

10-Day Weather Forecast

Advertisements
Track Severe Weather on mobile